sensor_id;sensor_type;location;lat;lon;timestamp;P1;durP1;ratioP1;P2;durP2;ratioP2
68455;SDS011;55437;55.046;38.838;2023-03-11T00:02:09;18.23;;;11.50;;
68455;SDS011;55437;55.046;38.838;2023-03-11T00:04:35;23.40;;;9.73;;
68455;SDS011;55437;55.046;38.838;2023-03-11T00:07:02;23.10;;;9.60;;
68455;SDS011;55437;55.046;38.838;2023-03-11T00:09:31;19.55;;;11.00;;
68455;SDS011;55437;55.046;38.838;2023-03-11T00:11:56;18.90;;;10.77;;
68455;SDS011;55437;55.046;38.838;2023-03-11T00:14:22;21.35;;;9.85;;
68455;SDS011;55437;55.046;38.838;2023-03-11T00:16:48;20.00;;;9.80;;
68455;SDS011;55437;55.046;38.838;2023-03-11T00:19:14;18.05;;;9.48;;
68455;SDS011;55437;55.046;38.838;2023-03-11T00:21:40;20.10;;;10.65;;
68455;SDS011;55437;55.046;38.838;2023-03-11T00:24:06;19.42;;;9.55;;
68455;SDS011;55437;55.046;38.838;2023-03-11T00:26:32;23.25;;;10.13;;
68455;SDS011;55437;55.046;38.838;2023-03-11T00:28:58;19.02;;;10.15;;
68455;SDS011;55437;55.046;38.838;2023-03-11T00:31:23;18.25;;;9.98;;
68455;SDS011;55437;55.046;38.838;2023-03-11T00:33:54;18.08;;;9.98;;
68455;SDS011;55437;55.046;38.838;2023-03-11T00:36:22;20.45;;;9.30;;
68455;SDS011;55437;55.046;38.838;2023-03-11T00:38:56;21.75;;;10.90;;
68455;SDS011;55437;55.046;38.838;2023-03-11T00:41:23;17.33;;;9.73;;
68455;SDS011;55437;55.046;38.838;2023-03-11T00:43:49;19.58;;;10.45;;
68455;SDS011;55437;55.046;38.838;2023-03-11T00:46:17;19.20;;;9.10;;
68455;SDS011;55437;55.046;38.838;2023-03-11T00:48:42;19.02;;;10.00;;
68455;SDS011;55437;55.046;38.838;2023-03-11T00:51:12;18.75;;;9.05;;
68455;SDS011;55437;55.046;38.838;2023-03-11T00:53:40;21.52;;;10.07;;
68455;SDS011;55437;55.046;38.838;2023-03-11T00:56:07;19.50;;;10.27;;
68455;SDS011;55437;55.046;38.838;2023-03-11T00:58:37;20.10;;;10.52;;
68455;SDS011;55437;55.046;38.838;2023-03-11T01:01:13;20.10;;;10.13;;
68455;SDS011;55437;55.046;38.838;2023-03-11T01:03:41;17.55;;;9.43;;
68455;SDS011;55437;55.046;38.838;2023-03-11T01:06:09;20.58;;;10.13;;
68455;SDS011;55437;55.046;38.838;2023-03-11T01:08:35;19.10;;;9.45;;
68455;SDS011;55437;55.046;38.838;2023-03-11T01:11:02;18.63;;;10.32;;
68455;SDS011;55437;55.046;38.838;2023-03-11T01:13:31;17.40;;;9.68;;
68455;SDS011;55437;55.046;38.838;2023-03-11T01:15:57;19.70;;;13.40;;
68455;SDS011;55437;55.046;38.838;2023-03-11T01:18:24;21.17;;;9.50;;
68455;SDS011;55437;55.046;38.838;2023-03-11T01:20:52;20.67;;;9.25;;
68455;SDS011;55437;55.046;38.838;2023-03-11T01:23:18;18.48;;;9.35;;
68455;SDS011;55437;55.046;38.838;2023-03-11T01:25:45;22.23;;;9.57;;
68455;SDS011;55437;55.046;38.838;2023-03-11T01:28:11;21.38;;;10.55;;
68455;SDS011;55437;55.046;38.838;2023-03-11T01:30:37;19.55;;;8.95;;
68455;SDS011;55437;55.046;38.838;2023-03-11T01:33:08;17.10;;;8.88;;
68455;SDS011;55437;55.046;38.838;2023-03-11T01:35:40;18.10;;;9.57;;
68455;SDS011;55437;55.046;38.838;2023-03-11T01:38:12;17.08;;;8.80;;
68455;SDS011;55437;55.046;38.838;2023-03-11T01:40:39;19.15;;;8.98;;
68455;SDS011;55437;55.046;38.838;2023-03-11T01:48:46;16.90;;;8.02;;
68455;SDS011;55437;55.046;38.838;2023-03-11T01:51:26;19.60;;;11.52;;
68455;SDS011;55437;55.046;38.838;2023-03-11T01:53:56;19.20;;;8.60;;
68455;SDS011;55437;55.046;38.838;2023-03-11T01:56:26;20.17;;;8.65;;
68455;SDS011;55437;55.046;38.838;2023-03-11T01:58:53;17.10;;;9.13;;
68455;SDS011;55437;55.046;38.838;2023-03-11T02:01:20;17.33;;;9.73;;
68455;SDS011;55437;55.046;38.838;2023-03-11T02:03:46;16.40;;;8.50;;
68455;SDS011;55437;55.046;38.838;2023-03-11T02:06:15;18.15;;;9.10;;
68455;SDS011;55437;55.046;38.838;2023-03-11T02:08:43;18.08;;;9.02;;
68455;SDS011;55437;55.046;38.838;2023-03-11T02:11:13;18.85;;;8.82;;
68455;SDS011;55437;55.046;38.838;2023-03-11T02:13:44;20.95;;;9.35;;
68455;SDS011;55437;55.046;38.838;2023-03-11T02:16:10;19.63;;;9.25;;
68455;SDS011;55437;55.046;38.838;2023-03-11T02:18:38;20.17;;;9.60;;
68455;SDS011;55437;55.046;38.838;2023-03-11T02:21:24;20.77;;;9.35;;
68455;SDS011;55437;55.046;38.838;2023-03-11T02:26:49;19.35;;;9.55;;
68455;SDS011;55437;55.046;38.838;2023-03-11T02:29:19;21.38;;;9.40;;
68455;SDS011;55437;55.046;38.838;2023-03-11T02:31:46;19.40;;;9.48;;
68455;SDS011;55437;55.046;38.838;2023-03-11T02:34:25;17.65;;;9.05;;
68455;SDS011;55437;55.046;38.838;2023-03-11T02:36:53;20.38;;;9.55;;
68455;SDS011;55437;55.046;38.838;2023-03-11T02:44:58;21.45;;;10.07;;
68455;SDS011;55437;55.046;38.838;2023-03-11T02:47:30;19.33;;;9.50;;
68455;SDS011;55437;55.046;38.838;2023-03-11T02:49:57;21.00;;;11.52;;
68455;SDS011;55437;55.046;38.838;2023-03-11T02:52:30;22.25;;;10.23;;
68455;SDS011;55437;55.046;38.838;2023-03-11T02:54:57;24.63;;;10.18;;
68455;SDS011;55437;55.046;38.838;2023-03-11T02:57:24;20.25;;;9.20;;
68455;SDS011;55437;55.046;38.838;2023-03-11T02:59:49;18.27;;;9.80;;
68455;SDS011;55437;55.046;38.838;2023-03-11T03:02:15;20.33;;;9.82;;
68455;SDS011;55437;55.046;38.838;2023-03-11T03:04:41;40.25;;;9.50;;
68455;SDS011;55437;55.046;38.838;2023-03-11T03:07:07;20.88;;;9.07;;
68455;SDS011;55437;55.046;38.838;2023-03-11T03:09:34;19.23;;;9.90;;
68455;SDS011;55437;55.046;38.838;2023-03-11T03:12:00;19.55;;;9.57;;
68455;SDS011;55437;55.046;38.838;2023-03-11T03:14:28;20.23;;;9.48;;
68455;SDS011;55437;55.046;38.838;2023-03-11T03:16:54;22.63;;;10.98;;
68455;SDS011;55437;55.046;38.838;2023-03-11T03:19:22;17.95;;;10.15;;
68455;SDS011;55437;55.046;38.838;2023-03-11T03:21:48;16.92;;;9.02;;
68455;SDS011;55437;55.046;38.838;2023-03-11T03:24:15;22.40;;;9.80;;
68455;SDS011;55437;55.046;38.838;2023-03-11T03:26:42;19.20;;;10.32;;
68455;SDS011;55437;55.046;38.838;2023-03-11T03:29:09;21.75;;;9.35;;
68455;SDS011;55437;55.046;38.838;2023-03-11T03:31:35;23.38;;;10.73;;
68455;SDS011;55437;55.046;38.838;2023-03-11T03:34:02;22.08;;;10.32;;
68455;SDS011;55437;55.046;38.838;2023-03-11T03:36:28;19.25;;;9.32;;
68455;SDS011;55437;55.046;38.838;2023-03-11T03:38:59;15.57;;;8.27;;
68455;SDS011;55437;55.046;38.838;2023-03-11T03:41:30;22.73;;;11.50;;
68455;SDS011;55437;55.046;38.838;2023-03-11T03:43:56;22.25;;;11.73;;
68455;SDS011;55437;55.046;38.838;2023-03-11T03:46:22;21.63;;;10.32;;
68455;SDS011;55437;55.046;38.838;2023-03-11T03:48:53;20.13;;;10.40;;
68455;SDS011;55437;55.046;38.838;2023-03-11T03:51:20;18.50;;;10.05;;
68455;SDS011;55437;55.046;38.838;2023-03-11T03:54:15;17.83;;;9.90;;
68455;SDS011;55437;55.046;38.838;2023-03-11T03:56:42;21.05;;;9.90;;
68455;SDS011;55437;55.046;38.838;2023-03-11T03:59:08;21.80;;;9.55;;
68455;SDS011;55437;55.046;38.838;2023-03-11T04:01:39;18.42;;;8.27;;
68455;SDS011;55437;55.046;38.838;2023-03-11T04:04:05;22.60;;;11.85;;
68455;SDS011;55437;55.046;38.838;2023-03-11T04:06:31;22.38;;;9.63;;
68455;SDS011;55437;55.046;38.838;2023-03-11T04:09:01;18.95;;;10.68;;
68455;SDS011;55437;55.046;38.838;2023-03-11T04:11:31;19.42;;;9.40;;
68455;SDS011;55437;55.046;38.838;2023-03-11T04:13:57;23.65;;;10.20;;
68455;SDS011;55437;55.046;38.838;2023-03-11T04:16:24;18.90;;;9.98;;
68455;SDS011;55437;55.046;38.838;2023-03-11T04:18:55;18.38;;;9.70;;
68455;SDS011;55437;55.046;38.838;2023-03-11T04:21:21;18.88;;;9.68;;
68455;SDS011;55437;55.046;38.838;2023-03-11T04:23:48;21.05;;;9.43;;
68455;SDS011;55437;55.046;38.838;2023-03-11T04:26:16;18.92;;;9.65;;
68455;SDS011;55437;55.046;38.838;2023-03-11T04:28:42;19.38;;;9.60;;
68455;SDS011;55437;55.046;38.838;2023-03-11T04:31:09;18.55;;;10.25;;
68455;SDS011;55437;55.046;38.838;2023-03-11T04:33:36;15.75;;;8.68;;
68455;SDS011;55437;55.046;38.838;2023-03-11T04:36:05;17.58;;;8.75;;
68455;SDS011;55437;55.046;38.838;2023-03-11T04:38:34;17.77;;;10.00;;
68455;SDS011;55437;55.046;38.838;2023-03-11T04:41:02;16.83;;;9.45;;
68455;SDS011;55437;55.046;38.838;2023-03-11T04:43:33;16.77;;;9.02;;
68455;SDS011;55437;55.046;38.838;2023-03-11T04:46:02;20.73;;;9.05;;
68455;SDS011;55437;55.046;38.838;2023-03-11T04:50:54;19.17;;;9.25;;
68455;SDS011;55437;55.046;38.838;2023-03-11T04:53:22;19.38;;;9.88;;
68455;SDS011;55437;55.046;38.838;2023-03-11T04:55:49;19.13;;;9.15;;
68455;SDS011;55437;55.046;38.838;2023-03-11T04:58:15;19.52;;;9.82;;
68455;SDS011;55437;55.046;38.838;2023-03-11T05:00:44;17.02;;;9.30;;
68455;SDS011;55437;55.046;38.838;2023-03-11T05:03:11;18.33;;;9.60;;
68455;SDS011;55437;55.046;38.838;2023-03-11T05:05:38;17.42;;;8.40;;
68455;SDS011;55437;55.046;38.838;2023-03-11T05:08:04;16.27;;;8.98;;
68455;SDS011;55437;55.046;38.838;2023-03-11T05:10:31;19.08;;;10.05;;
68455;SDS011;55437;55.046;38.838;2023-03-11T05:12:58;18.27;;;9.27;;
68455;SDS011;55437;55.046;38.838;2023-03-11T05:15:32;16.58;;;9.65;;
68455;SDS011;55437;55.046;38.838;2023-03-11T05:18:03;17.80;;;8.43;;
68455;SDS011;55437;55.046;38.838;2023-03-11T05:20:31;18.73;;;8.95;;
68455;SDS011;55437;55.046;38.838;2023-03-11T05:22:57;16.23;;;8.63;;
68455;SDS011;55437;55.046;38.838;2023-03-11T05:25:23;18.73;;;8.65;;
68455;SDS011;55437;55.046;38.838;2023-03-11T05:27:49;18.33;;;8.68;;
68455;SDS011;55437;55.046;38.838;2023-03-11T05:30:16;15.90;;;7.80;;
68455;SDS011;55437;55.046;38.838;2023-03-11T05:32:43;17.25;;;10.13;;
68455;SDS011;55437;55.046;38.838;2023-03-11T05:35:10;18.30;;;8.55;;
68455;SDS011;55437;55.046;38.838;2023-03-11T05:37:37;15.95;;;8.15;;
68455;SDS011;55437;55.046;38.838;2023-03-11T05:40:05;15.73;;;8.57;;
68455;SDS011;55437;55.046;38.838;2023-03-11T05:42:34;20.25;;;10.07;;
68455;SDS011;55437;55.046;38.838;2023-03-11T05:45:01;18.63;;;8.75;;
68455;SDS011;55437;55.046;38.838;2023-03-11T05:47:32;13.73;;;7.55;;
68455;SDS011;55437;55.046;38.838;2023-03-11T05:50:02;15.95;;;7.65;;
68455;SDS011;55437;55.046;38.838;2023-03-11T05:52:30;13.18;;;6.93;;
68455;SDS011;55437;55.046;38.838;2023-03-11T05:54:58;12.30;;;6.20;;
68455;SDS011;55437;55.046;38.838;2023-03-11T05:57:28;17.65;;;8.00;;
68455;SDS011;55437;55.046;38.838;2023-03-11T05:59:56;13.55;;;6.78;;
68455;SDS011;55437;55.046;38.838;2023-03-11T06:02:23;14.73;;;7.25;;
68455;SDS011;55437;55.046;38.838;2023-03-11T06:04:54;13.15;;;7.25;;
68455;SDS011;55437;55.046;38.838;2023-03-11T06:07:20;13.57;;;7.22;;
68455;SDS011;55437;55.046;38.838;2023-03-11T06:09:50;14.25;;;6.35;;
68455;SDS011;55437;55.046;38.838;2023-03-11T06:12:17;13.55;;;6.20;;
68455;SDS011;55437;55.046;38.838;2023-03-11T06:15:00;13.35;;;7.57;;
68455;SDS011;55437;55.046;38.838;2023-03-11T06:17:28;8.57;;;4.43;;
68455;SDS011;55437;55.046;38.838;2023-03-11T06:19:54;14.98;;;7.63;;
68455;SDS011;55437;55.046;38.838;2023-03-11T06:22:20;10.82;;;5.45;;
68455;SDS011;55437;55.046;38.838;2023-03-11T06:24:46;11.63;;;5.50;;
68455;SDS011;55437;55.046;38.838;2023-03-11T06:27:12;14.15;;;6.72;;
68455;SDS011;55437;55.046;38.838;2023-03-11T06:29:39;8.95;;;4.20;;
68455;SDS011;55437;55.046;38.838;2023-03-11T06:32:05;14.02;;;6.28;;
68455;SDS011;55437;55.046;38.838;2023-03-11T06:34:36;12.02;;;5.47;;
68455;SDS011;55437;55.046;38.838;2023-03-11T06:37:02;11.93;;;5.70;;
68455;SDS011;55437;55.046;38.838;2023-03-11T06:39:28;10.70;;;5.47;;
68455;SDS011;55437;55.046;38.838;2023-03-11T06:41:54;11.85;;;5.38;;
68455;SDS011;55437;55.046;38.838;2023-03-11T06:44:19;12.38;;;6.00;;
68455;SDS011;55437;55.046;38.838;2023-03-11T06:46:46;11.40;;;5.18;;
68455;SDS011;55437;55.046;38.838;2023-03-11T06:49:13;13.27;;;6.28;;
68455;SDS011;55437;55.046;38.838;2023-03-11T06:51:40;11.52;;;5.25;;
68455;SDS011;55437;55.046;38.838;2023-03-11T06:54:08;16.58;;;7.65;;
68455;SDS011;55437;55.046;38.838;2023-03-11T06:56:37;23.33;;;8.88;;
68455;SDS011;55437;55.046;38.838;2023-03-11T06:59:05;27.13;;;11.05;;
68455;SDS011;55437;55.046;38.838;2023-03-11T07:01:48;20.33;;;9.05;;
68455;SDS011;55437;55.046;38.838;2023-03-11T07:04:14;9.55;;;4.72;;
68455;SDS011;55437;55.046;38.838;2023-03-11T07:06:40;12.13;;;6.15;;
68455;SDS011;55437;55.046;38.838;2023-03-11T07:09:15;13.00;;;6.82;;
68455;SDS011;55437;55.046;38.838;2023-03-11T07:11:43;11.88;;;4.20;;
68455;SDS011;55437;55.046;38.838;2023-03-11T07:14:13;10.45;;;5.82;;
68455;SDS011;55437;55.046;38.838;2023-03-11T07:16:43;7.97;;;4.20;;
68455;SDS011;55437;55.046;38.838;2023-03-11T07:19:17;10.23;;;4.65;;
68455;SDS011;55437;55.046;38.838;2023-03-11T07:21:43;9.93;;;4.45;;
68455;SDS011;55437;55.046;38.838;2023-03-11T07:24:10;11.30;;;4.60;;
68455;SDS011;55437;55.046;38.838;2023-03-11T07:26:37;10.65;;;5.85;;
68455;SDS011;55437;55.046;38.838;2023-03-11T07:29:04;8.02;;;4.50;;
68455;SDS011;55437;55.046;38.838;2023-03-11T07:31:31;20.45;;;7.55;;
68455;SDS011;55437;55.046;38.838;2023-03-11T07:33:59;11.85;;;5.25;;
68455;SDS011;55437;55.046;38.838;2023-03-11T07:36:27;8.80;;;4.82;;
68455;SDS011;55437;55.046;38.838;2023-03-11T07:38:57;8.50;;;3.85;;
68455;SDS011;55437;55.046;38.838;2023-03-11T07:41:26;12.10;;;5.22;;
68455;SDS011;55437;55.046;38.838;2023-03-11T07:43:54;11.48;;;5.07;;
68455;SDS011;55437;55.046;38.838;2023-03-11T07:46:21;11.13;;;5.15;;
68455;SDS011;55437;55.046;38.838;2023-03-11T07:48:49;11.52;;;5.13;;
68455;SDS011;55437;55.046;38.838;2023-03-11T07:51:17;8.48;;;4.28;;
68455;SDS011;55437;55.046;38.838;2023-03-11T07:53:45;11.05;;;5.22;;
68455;SDS011;55437;55.046;38.838;2023-03-11T07:56:33;8.35;;;4.15;;
68455;SDS011;55437;55.046;38.838;2023-03-11T07:58:59;10.23;;;4.30;;
68455;SDS011;55437;55.046;38.838;2023-03-11T08:01:28;11.82;;;5.47;;
68455;SDS011;55437;55.046;38.838;2023-03-11T08:04:02;9.73;;;4.72;;
68455;SDS011;55437;55.046;38.838;2023-03-11T08:06:30;9.30;;;4.32;;
68455;SDS011;55437;55.046;38.838;2023-03-11T08:08:58;9.68;;;5.68;;
68455;SDS011;55437;55.046;38.838;2023-03-11T08:11:26;9.60;;;5.53;;
68455;SDS011;55437;55.046;38.838;2023-03-11T08:13:52;11.07;;;5.32;;
68455;SDS011;55437;55.046;38.838;2023-03-11T08:16:19;10.18;;;4.55;;
68455;SDS011;55437;55.046;38.838;2023-03-11T08:18:47;8.88;;;3.33;;
68455;SDS011;55437;55.046;38.838;2023-03-11T08:21:15;11.75;;;4.32;;
68455;SDS011;55437;55.046;38.838;2023-03-11T08:24:08;9.52;;;4.63;;
68455;SDS011;55437;55.046;38.838;2023-03-11T08:26:36;11.05;;;4.35;;
68455;SDS011;55437;55.046;38.838;2023-03-11T08:29:01;9.23;;;4.72;;
68455;SDS011;55437;55.046;38.838;2023-03-11T08:31:28;11.10;;;6.25;;
68455;SDS011;55437;55.046;38.838;2023-03-11T08:33:56;10.55;;;5.40;;
68455;SDS011;55437;55.046;38.838;2023-03-11T08:36:25;11.32;;;5.70;;
68455;SDS011;55437;55.046;38.838;2023-03-11T08:38:51;9.38;;;4.93;;
68455;SDS011;55437;55.046;38.838;2023-03-11T08:41:17;11.30;;;5.60;;
68455;SDS011;55437;55.046;38.838;2023-03-11T08:43:43;11.68;;;5.82;;
68455;SDS011;55437;55.046;38.838;2023-03-11T08:46:14;12.80;;;5.88;;
68455;SDS011;55437;55.046;38.838;2023-03-11T08:48:46;12.52;;;6.72;;
68455;SDS011;55437;55.046;38.838;2023-03-11T08:51:12;9.82;;;4.93;;
68455;SDS011;55437;55.046;38.838;2023-03-11T08:53:39;13.63;;;6.93;;
68455;SDS011;55437;55.046;38.838;2023-03-11T08:56:05;13.20;;;6.43;;
68455;SDS011;55437;55.046;38.838;2023-03-11T08:58:31;11.90;;;5.80;;
68455;SDS011;55437;55.046;38.838;2023-03-11T09:00:57;14.07;;;6.55;;
68455;SDS011;55437;55.046;38.838;2023-03-11T09:03:24;11.15;;;6.47;;
68455;SDS011;55437;55.046;38.838;2023-03-11T09:05:55;10.93;;;5.13;;
68455;SDS011;55437;55.046;38.838;2023-03-11T09:08:21;13.73;;;6.20;;
68455;SDS011;55437;55.046;38.838;2023-03-11T09:10:48;11.45;;;6.40;;
68455;SDS011;55437;55.046;38.838;2023-03-11T09:13:14;12.68;;;5.78;;
68455;SDS011;55437;55.046;38.838;2023-03-11T09:15:42;12.88;;;6.32;;
68455;SDS011;55437;55.046;38.838;2023-03-11T09:18:11;12.13;;;6.30;;
68455;SDS011;55437;55.046;38.838;2023-03-11T09:20:38;13.25;;;5.50;;
68455;SDS011;55437;55.046;38.838;2023-03-11T09:23:05;15.52;;;6.88;;
68455;SDS011;55437;55.046;38.838;2023-03-11T09:25:32;14.43;;;6.40;;
68455;SDS011;55437;55.046;38.838;2023-03-11T09:27:57;12.30;;;6.13;;
68455;SDS011;55437;55.046;38.838;2023-03-11T09:30:24;12.63;;;4.95;;
68455;SDS011;55437;55.046;38.838;2023-03-11T09:32:50;10.98;;;5.40;;
68455;SDS011;55437;55.046;38.838;2023-03-11T09:35:15;10.50;;;4.93;;
68455;SDS011;55437;55.046;38.838;2023-03-11T09:37:41;10.32;;;5.60;;
68455;SDS011;55437;55.046;38.838;2023-03-11T09:40:10;11.80;;;5.88;;
68455;SDS011;55437;55.046;38.838;2023-03-11T09:42:42;10.27;;;5.05;;
68455;SDS011;55437;55.046;38.838;2023-03-11T09:45:27;12.57;;;5.15;;
68455;SDS011;55437;55.046;38.838;2023-03-11T09:53:20;10.10;;;5.15;;
68455;SDS011;55437;55.046;38.838;2023-03-11T09:55:48;12.68;;;6.47;;
68455;SDS011;55437;55.046;38.838;2023-03-11T10:00:59;9.98;;;4.55;;
68455;SDS011;55437;55.046;38.838;2023-03-11T10:03:27;11.63;;;5.05;;
68455;SDS011;55437;55.046;38.838;2023-03-11T10:08:48;10.15;;;5.30;;
68455;SDS011;55437;55.046;38.838;2023-03-11T10:29:26;9.93;;;4.75;;
68455;SDS011;55437;55.046;38.838;2023-03-11T10:34:41;10.88;;;4.72;;
68455;SDS011;55437;55.046;38.838;2023-03-11T10:37:23;8.95;;;3.95;;
68455;SDS011;55437;55.046;38.838;2023-03-11T10:40:17;9.70;;;5.32;;
68455;SDS011;55437;55.046;38.838;2023-03-11T10:42:46;11.88;;;5.78;;
68455;SDS011;55437;55.046;38.838;2023-03-11T10:45:14;12.10;;;4.63;;
68455;SDS011;55437;55.046;38.838;2023-03-11T10:47:40;10.65;;;5.05;;
68455;SDS011;55437;55.046;38.838;2023-03-11T10:50:10;12.00;;;5.45;;
68455;SDS011;55437;55.046;38.838;2023-03-11T10:52:42;12.85;;;5.55;;
68455;SDS011;55437;55.046;38.838;2023-03-11T10:55:32;10.70;;;4.90;;
68455;SDS011;55437;55.046;38.838;2023-03-11T10:58:09;12.68;;;5.55;;
68455;SDS011;55437;55.046;38.838;2023-03-11T11:00:38;11.40;;;5.22;;
68455;SDS011;55437;55.046;38.838;2023-03-11T11:03:10;10.98;;;5.00;;
68455;SDS011;55437;55.046;38.838;2023-03-11T11:05:42;12.00;;;5.97;;
68455;SDS011;55437;55.046;38.838;2023-03-11T11:11:00;12.43;;;5.88;;
68455;SDS011;55437;55.046;38.838;2023-03-11T11:13:28;9.38;;;5.05;;
68455;SDS011;55437;55.046;38.838;2023-03-11T11:16:05;9.57;;;5.18;;
68455;SDS011;55437;55.046;38.838;2023-03-11T11:21:12;10.25;;;5.18;;
68455;SDS011;55437;55.046;38.838;2023-03-11T11:23:43;10.75;;;5.28;;
68455;SDS011;55437;55.046;38.838;2023-03-11T11:28:45;9.10;;;4.15;;
68455;SDS011;55437;55.046;38.838;2023-03-11T11:31:23;9.18;;;4.57;;
68455;SDS011;55437;55.046;38.838;2023-03-11T11:33:51;9.25;;;4.65;;
68455;SDS011;55437;55.046;38.838;2023-03-11T11:36:19;9.70;;;4.78;;
68455;SDS011;55437;55.046;38.838;2023-03-11T11:38:51;10.55;;;4.47;;
68455;SDS011;55437;55.046;38.838;2023-03-11T11:41:20;10.18;;;5.30;;
68455;SDS011;55437;55.046;38.838;2023-03-11T11:44:02;11.90;;;4.90;;
68455;SDS011;55437;55.046;38.838;2023-03-11T11:46:33;11.18;;;5.47;;
68455;SDS011;55437;55.046;38.838;2023-03-11T11:54:32;11.98;;;5.28;;
68455;SDS011;55437;55.046;38.838;2023-03-11T11:57:00;10.10;;;4.75;;
68455;SDS011;55437;55.046;38.838;2023-03-11T11:59:35;11.13;;;5.03;;
68455;SDS011;55437;55.046;38.838;2023-03-11T12:10:41;18.55;;;5.88;;
68455;SDS011;55437;55.046;38.838;2023-03-11T12:18:50;8.73;;;4.10;;
68455;SDS011;55437;55.046;38.838;2023-03-11T12:27:11;14.13;;;6.45;;
68455;SDS011;55437;55.046;38.838;2023-03-11T12:29:54;15.52;;;7.03;;
68455;SDS011;55437;55.046;38.838;2023-03-11T12:32:45;13.75;;;5.88;;
68455;SDS011;55437;55.046;38.838;2023-03-11T12:35:20;12.00;;;5.45;;
68455;SDS011;55437;55.046;38.838;2023-03-11T12:38:37;11.32;;;5.20;;
68455;SDS011;55437;55.046;38.838;2023-03-11T12:43:25;11.63;;;5.95;;
68455;SDS011;55437;55.046;38.838;2023-03-11T12:45:55;15.50;;;6.57;;
68455;SDS011;55437;55.046;38.838;2023-03-11T12:53:52;14.85;;;6.70;;
68455;SDS011;55437;55.046;38.838;2023-03-11T13:10:00;14.48;;;6.00;;
68455;SDS011;55437;55.046;38.838;2023-03-11T13:18:28;25.98;;;9.07;;
68455;SDS011;55437;55.046;38.838;2023-03-11T13:26:21;19.30;;;9.18;;
68455;SDS011;55437;55.046;38.838;2023-03-11T13:42:34;16.23;;;7.28;;
68455;SDS011;55437;55.046;38.838;2023-03-11T13:45:30;16.00;;;6.15;;
68455;SDS011;55437;55.046;38.838;2023-03-11T13:48:00;12.80;;;6.05;;
68455;SDS011;55437;55.046;38.838;2023-03-11T13:50:32;13.55;;;6.63;;
68455;SDS011;55437;55.046;38.838;2023-03-11T13:53:07;11.20;;;5.05;;
68455;SDS011;55437;55.046;38.838;2023-03-11T13:55:55;17.73;;;6.32;;
68455;SDS011;55437;55.046;38.838;2023-03-11T13:58:22;9.68;;;4.57;;
68455;SDS011;55437;55.046;38.838;2023-03-11T14:03:27;11.80;;;5.80;;
68455;SDS011;55437;55.046;38.838;2023-03-11T14:06:05;14.32;;;6.32;;
68455;SDS011;55437;55.046;38.838;2023-03-11T14:08:37;12.45;;;6.15;;
68455;SDS011;55437;55.046;38.838;2023-03-11T14:13:41;10.68;;;5.63;;
68455;SDS011;55437;55.046;38.838;2023-03-11T14:16:21;13.95;;;6.05;;
68455;SDS011;55437;55.046;38.838;2023-03-11T14:19:01;13.00;;;6.22;;
68455;SDS011;55437;55.046;38.838;2023-03-11T14:21:29;15.55;;;7.25;;
68455;SDS011;55437;55.046;38.838;2023-03-11T14:23:57;14.07;;;7.15;;
68455;SDS011;55437;55.046;38.838;2023-03-11T14:26:28;17.95;;;7.60;;
68455;SDS011;55437;55.046;38.838;2023-03-11T14:28:57;11.25;;;5.70;;
68455;SDS011;55437;55.046;38.838;2023-03-11T14:31:43;10.77;;;5.68;;
68455;SDS011;55437;55.046;38.838;2023-03-11T14:36:48;14.10;;;6.55;;
68455;SDS011;55437;55.046;38.838;2023-03-11T14:39:26;18.92;;;6.72;;
68455;SDS011;55437;55.046;38.838;2023-03-11T14:44:33;13.60;;;6.57;;
68455;SDS011;55437;55.046;38.838;2023-03-11T14:47:06;11.95;;;5.55;;
68455;SDS011;55437;55.046;38.838;2023-03-11T14:49:36;11.50;;;6.15;;
68455;SDS011;55437;55.046;38.838;2023-03-11T14:52:06;13.38;;;6.05;;
68455;SDS011;55437;55.046;38.838;2023-03-11T14:54:38;12.10;;;6.07;;
68455;SDS011;55437;55.046;38.838;2023-03-11T14:57:09;13.38;;;6.07;;
68455;SDS011;55437;55.046;38.838;2023-03-11T14:59:43;11.70;;;5.63;;
68455;SDS011;55437;55.046;38.838;2023-03-11T15:05:19;11.45;;;5.53;;
68455;SDS011;55437;55.046;38.838;2023-03-11T15:07:58;12.07;;;6.15;;
68455;SDS011;55437;55.046;38.838;2023-03-11T15:10:27;11.93;;;5.38;;
68455;SDS011;55437;55.046;38.838;2023-03-11T15:13:02;12.95;;;6.80;;
68455;SDS011;55437;55.046;38.838;2023-03-11T15:15:30;12.55;;;5.68;;
68455;SDS011;55437;55.046;38.838;2023-03-11T15:17:58;11.00;;;5.32;;
68455;SDS011;55437;55.046;38.838;2023-03-11T15:20:29;13.18;;;6.25;;
68455;SDS011;55437;55.046;38.838;2023-03-11T15:23:00;9.60;;;4.88;;
68455;SDS011;55437;55.046;38.838;2023-03-11T15:25:30;14.00;;;5.75;;
68455;SDS011;55437;55.046;38.838;2023-03-11T15:27:59;12.05;;;5.97;;
68455;SDS011;55437;55.046;38.838;2023-03-11T15:34:06;12.30;;;5.55;;
68455;SDS011;55437;55.046;38.838;2023-03-11T15:36:38;10.88;;;5.38;;
68455;SDS011;55437;55.046;38.838;2023-03-11T15:41:40;12.60;;;5.50;;
68455;SDS011;55437;55.046;38.838;2023-03-11T15:44:20;15.45;;;6.25;;
68455;SDS011;55437;55.046;38.838;2023-03-11T15:46:54;12.07;;;5.80;;
68455;SDS011;55437;55.046;38.838;2023-03-11T15:49:20;13.50;;;5.90;;
68455;SDS011;55437;55.046;38.838;2023-03-11T15:51:47;14.95;;;6.03;;
68455;SDS011;55437;55.046;38.838;2023-03-11T15:54:13;13.73;;;7.32;;
68455;SDS011;55437;55.046;38.838;2023-03-11T15:56:39;10.77;;;5.63;;
68455;SDS011;55437;55.046;38.838;2023-03-11T15:59:05;13.77;;;5.55;;
68455;SDS011;55437;55.046;38.838;2023-03-11T16:01:31;14.80;;;6.00;;
68455;SDS011;55437;55.046;38.838;2023-03-11T16:03:57;12.38;;;5.93;;
68455;SDS011;55437;55.046;38.838;2023-03-11T16:06:22;13.68;;;5.63;;
68455;SDS011;55437;55.046;38.838;2023-03-11T16:08:49;13.88;;;5.75;;
68455;SDS011;55437;55.046;38.838;2023-03-11T16:11:15;16.45;;;7.53;;
68455;SDS011;55437;55.046;38.838;2023-03-11T16:13:41;16.30;;;7.55;;
68455;SDS011;55437;55.046;38.838;2023-03-11T16:16:16;14.82;;;6.93;;
68455;SDS011;55437;55.046;38.838;2023-03-11T16:18:45;15.77;;;7.40;;
68455;SDS011;55437;55.046;38.838;2023-03-11T16:21:13;10.73;;;4.78;;
68455;SDS011;55437;55.046;38.838;2023-03-11T16:23:41;11.77;;;5.63;;
68455;SDS011;55437;55.046;38.838;2023-03-11T16:26:08;13.65;;;5.95;;
68455;SDS011;55437;55.046;38.838;2023-03-11T16:28:35;16.63;;;7.40;;
68455;SDS011;55437;55.046;38.838;2023-03-11T16:31:02;15.07;;;7.38;;
68455;SDS011;55437;55.046;38.838;2023-03-11T16:33:29;15.30;;;6.72;;
68455;SDS011;55437;55.046;38.838;2023-03-11T16:35:55;16.02;;;7.03;;
68455;SDS011;55437;55.046;38.838;2023-03-11T16:38:21;13.20;;;6.00;;
68455;SDS011;55437;55.046;38.838;2023-03-11T16:40:55;16.48;;;7.15;;
68455;SDS011;55437;55.046;38.838;2023-03-11T16:55:17;14.13;;;6.22;;
68455;SDS011;55437;55.046;38.838;2023-03-11T16:57:44;13.77;;;6.22;;
68455;SDS011;55437;55.046;38.838;2023-03-11T17:00:10;12.43;;;6.07;;
68455;SDS011;55437;55.046;38.838;2023-03-11T17:02:37;15.10;;;7.28;;
68455;SDS011;55437;55.046;38.838;2023-03-11T17:05:05;20.38;;;6.30;;
68455;SDS011;55437;55.046;38.838;2023-03-11T17:07:32;13.48;;;6.18;;
68455;SDS011;55437;55.046;38.838;2023-03-11T17:09:59;12.75;;;7.13;;
68455;SDS011;55437;55.046;38.838;2023-03-11T17:12:26;16.73;;;6.80;;
68455;SDS011;55437;55.046;38.838;2023-03-11T17:14:52;15.07;;;7.35;;